<?xml version="1.0" encoding="UTF-8" standalone="no" ?>
<gpx xmlns="http://www.topografix.com/GPX/1/1" xmlns:xsi="http://www.w3.org/2001/XMLSchema-instance" xsi:schemaLocation="http://www.topografix.com/GPX/1/1 http://www.topografix.com/GPX/1/1/gpx.xsd" version="1.1" creator="VisuGPX - https://www.visugpx.com">
  <metadata>
    <name>BKPK Mai2022 - Variante Pierre</name>
  </metadata>
  <trk>
    <name><![CDATA[variante 1]]></name>
    <extensions>
      <line xmlns="http://www.topografix.com/GPX/gpx_style/0/2">
        <color>FF0000</color>
        <width>4</width>
      </line>
    </extensions>
    <trkseg>
      <trkpt lat="44.61216" lon="-1.00468">
        <ele>11.097123</ele>
        <time>2022-01-18T13:43:04.839Z</time>
      </trkpt>
      <trkpt lat="44.61254" lon="-1.00477">
        <ele>11.097123</ele>
        <time>2022-01-18T13:43:14.934Z</time>
      </trkpt>
      <trkpt lat="44.61272" lon="-1.00468">
        <ele>11.097123</ele>
        <time>2022-01-18T13:43:20.370Z</time>
      </trkpt>
      <trkpt lat="44.61283" lon="-1.00474">
        <ele>11.097123</ele>
        <time>2022-01-18T13:43:23.289Z</time>
      </trkpt>
      <trkpt lat="44.61394" lon="-1.00498">
        <ele>10.952473</ele>
        <time>2022-01-18T13:43:52.930Z</time>
      </trkpt>
      <trkpt lat="44.61448" lon="-1.00449">
        <ele>10.850304</ele>
        <time>2022-01-18T13:44:08.710Z</time>
      </trkpt>
      <trkpt lat="44.61488" lon="-1.00435">
        <ele>10.658428</ele>
        <time>2022-01-18T13:44:18.489Z</time>
      </trkpt>
      <trkpt lat="44.61493" lon="-1.00433">
        <ele>10.615255</ele>
        <time>2022-01-18T13:44:19.608Z</time>
      </trkpt>
      <trkpt lat="44.61508" lon="-1.00441">
        <ele>10.462484</ele>
        <time>2022-01-18T13:44:23.493Z</time>
      </trkpt>
      <trkpt lat="44.61549" lon="-1.00409">
        <ele>10.037585</ele>
        <time>2022-01-18T13:44:34.472Z</time>
      </trkpt>
      <trkpt lat="44.61618" lon="-1.0038">
        <ele>9.385077</ele>
        <time>2022-01-18T13:44:51.162Z</time>
      </trkpt>
      <trkpt lat="44.61668" lon="-1.00354">
        <ele>9.069827</ele>
        <time>2022-01-18T13:45:03.513Z</time>
      </trkpt>
      <trkpt lat="44.61833" lon="-1.00253">
        <ele>8.634534</ele>
        <time>2022-01-18T13:45:48.568Z</time>
      </trkpt>
      <trkpt lat="44.6191" lon="-1.00191">
        <ele>8.927865</ele>
        <time>2022-01-18T13:46:12.551Z</time>
      </trkpt>
      <trkpt lat="44.61914" lon="-1.00171">
        <ele>8.975188</ele>
        <time>2022-01-18T13:46:16.451Z</time>
      </trkpt>
      <trkpt lat="44.62026" lon="-1.00104">
        <ele>9.634</ele>
        <time>2022-01-18T13:46:50.393Z</time>
      </trkpt>
      <trkpt lat="44.62137" lon="-1.00025">
        <ele>10.348077</ele>
        <time>2022-01-18T13:47:25.706Z</time>
      </trkpt>
      <trkpt lat="44.62143" lon="-0.99978">
        <ele>10.376784</ele>
        <time>2022-01-18T13:47:35.258Z</time>
      </trkpt>
      <trkpt lat="44.62139" lon="-0.99956">
        <ele>10.390025</ele>
        <time>2022-01-18T13:47:39.505Z</time>
      </trkpt>
      <trkpt lat="44.62173" lon="-0.99878">
        <ele>10.444499</ele>
        <time>2022-01-18T13:47:56.270Z</time>
      </trkpt>
      <trkpt lat="44.62192" lon="-0.99847">
        <ele>10.468681</ele>
        <time>2022-01-18T13:48:03.274Z</time>
      </trkpt>
      <trkpt lat="44.62215" lon="-0.99804">
        <ele>10.296278</ele>
        <time>2022-01-18T13:48:12.560Z</time>
      </trkpt>
      <trkpt lat="44.62253" lon="-0.99767">
        <ele>9.921067</ele>
        <time>2022-01-18T13:48:23.623Z</time>
      </trkpt>
      <trkpt lat="44.62249" lon="-0.9975">
        <ele>9.817226</ele>
        <time>2022-01-18T13:48:26.593Z</time>
      </trkpt>
      <trkpt lat="44.62247" lon="-0.99725">
        <ele>9.67641</ele>
        <time>2022-01-18T13:48:30.908Z</time>
      </trkpt>
      <trkpt lat="44.62244" lon="-0.99714">
        <ele>9.605456</ele>
        <time>2022-01-18T13:48:32.854Z</time>
      </trkpt>
      <trkpt lat="44.62252" lon="-0.99687">
        <ele>9.436506</ele>
        <time>2022-01-18T13:48:37.894Z</time>
      </trkpt>
      <trkpt lat="44.62258" lon="-0.9967">
        <ele>9.326903</ele>
        <time>2022-01-18T13:48:40.986Z</time>
      </trkpt>
      <trkpt lat="44.62265" lon="-0.99628">
        <ele>9.078727</ele>
        <time>2022-01-18T13:48:48.252Z</time>
      </trkpt>
      <trkpt lat="44.62277" lon="-0.99602">
        <ele>8.98221</ele>
        <time>2022-01-18T13:48:53.235Z</time>
      </trkpt>
      <trkpt lat="44.62287" lon="-0.9959">
        <ele>8.942062</ele>
        <time>2022-01-18T13:48:56.420Z</time>
      </trkpt>
      <trkpt lat="44.62341" lon="-0.99566">
        <ele>8.76659</ele>
        <time>2022-01-18T13:49:10.000Z</time>
      </trkpt>
      <trkpt lat="44.6238" lon="-0.99518">
        <ele>8.607127</ele>
        <time>2022-01-18T13:49:23.530Z</time>
      </trkpt>
      <trkpt lat="44.62385" lon="-0.99498">
        <ele>8.562654</ele>
        <time>2022-01-18T13:49:27.227Z</time>
      </trkpt>
      <trkpt lat="44.62394" lon="-0.99503">
        <ele>8.531365</ele>
        <time>2022-01-18T13:49:29.894Z</time>
      </trkpt>
      <trkpt lat="44.62401" lon="-0.99506">
        <ele>8.509545</ele>
        <time>2022-01-18T13:49:31.883Z</time>
      </trkpt>
      <trkpt lat="44.62426" lon="-0.99514">
        <ele>8.488582</ele>
        <time>2022-01-18T13:49:38.775Z</time>
      </trkpt>
      <trkpt lat="44.6245" lon="-0.99526">
        <ele>8.504363</ele>
        <time>2022-01-18T13:49:45.347Z</time>
      </trkpt>
      <trkpt lat="44.62459" lon="-0.99545">
        <ele>8.514669</ele>
        <time>2022-01-18T13:49:49.529Z</time>
      </trkpt>
      <trkpt lat="44.62452" lon="-0.99557">
        <ele>8.52196</ele>
        <time>2022-01-18T13:49:52.681Z</time>
      </trkpt>
      <trkpt lat="44.62442" lon="-0.99578">
        <ele>8.533263</ele>
        <time>2022-01-18T13:49:57.134Z</time>
      </trkpt>
      <trkpt lat="44.62406" lon="-0.99672">
        <ele>8.581561</ele>
        <time>2022-01-18T13:50:16.653Z</time>
      </trkpt>
      <trkpt lat="44.62435" lon="-0.99685">
        <ele>8.521853</ele>
        <time>2022-01-18T13:50:24.532Z</time>
      </trkpt>
      <trkpt lat="44.62458" lon="-0.99692">
        <ele>8.399598</ele>
        <time>2022-01-18T13:50:30.407Z</time>
      </trkpt>
      <trkpt lat="44.62502" lon="-0.99692">
        <ele>8.170239</ele>
        <time>2022-01-18T13:50:40.971Z</time>
      </trkpt>
      <trkpt lat="44.62563" lon="-0.99706">
        <ele>7.842839</ele>
        <time>2022-01-18T13:50:55.805Z</time>
      </trkpt>
      <trkpt lat="44.6263" lon="-0.99719">
        <ele>7.5139</ele>
        <time>2022-01-18T13:51:11.789Z</time>
      </trkpt>
      <trkpt lat="44.6263" lon="-0.99715">
        <ele>7.498897</ele>
        <time>2022-01-18T13:51:12.269Z</time>
      </trkpt>
      <trkpt lat="44.62635" lon="-0.99671">
        <ele>7.358505</ele>
        <time>2022-01-18T13:51:16.723Z</time>
      </trkpt>
      <trkpt lat="44.62645" lon="-0.99564">
        <ele>7.016535</ele>
        <time>2022-01-18T13:51:27.730Z</time>
      </trkpt>
      <trkpt lat="44.62656" lon="-0.99458">
        <ele>6.930074</ele>
        <time>2022-01-18T13:51:39.261Z</time>
      </trkpt>
      <trkpt lat="44.62663" lon="-0.99461">
        <ele>6.946256</ele>
        <time>2022-01-18T13:51:41.075Z</time>
      </trkpt>
      <trkpt lat="44.62667" lon="-0.99472">
        <ele>6.966135</ele>
        <time>2022-01-18T13:51:43.441Z</time>
      </trkpt>
      <trkpt lat="44.62662" lon="-0.99542">
        <ele>7.078142</ele>
        <time>2022-01-18T13:51:56.595Z</time>
      </trkpt>
      <trkpt lat="44.62663" lon="-0.9956">
        <ele>7.105364</ele>
        <time>2022-01-18T13:51:59.797Z</time>
      </trkpt>
      <trkpt lat="44.62672" lon="-0.99565">
        <ele>7.126939</ele>
        <time>2022-01-18T13:52:02.459Z</time>
      </trkpt>
      <trkpt lat="44.62692" lon="-0.99566">
        <ele>7.169585</ele>
        <time>2022-01-18T13:52:07.615Z</time>
      </trkpt>
      <trkpt lat="44.62716" lon="-0.99552">
        <ele>7.228461</ele>
        <time>2022-01-18T13:52:14.872Z</time>
      </trkpt>
      <trkpt lat="44.6273" lon="-0.9955">
        <ele>7.287113</ele>
        <time>2022-01-18T13:52:18.691Z</time>
      </trkpt>
      <trkpt lat="44.62798" lon="-0.99571">
        <ele>7.781412</ele>
        <time>2022-01-18T13:52:38.503Z</time>
      </trkpt>
      <trkpt lat="44.62837" lon="-0.9961">
        <ele>8.121033</ele>
        <time>2022-01-18T13:52:52.314Z</time>
      </trkpt>
      <trkpt lat="44.62864" lon="-0.99663">
        <ele>8.446707</ele>
        <time>2022-01-18T13:53:05.446Z</time>
      </trkpt>
      <trkpt lat="44.62888" lon="-0.99687">
        <ele>8.605253</ele>
        <time>2022-01-18T13:53:13.747Z</time>
      </trkpt>
      <trkpt lat="44.62936" lon="-0.99718">
        <ele>8.844087</ele>
        <time>2022-01-18T13:53:28.442Z</time>
      </trkpt>
      <trkpt lat="44.6297" lon="-0.99712">
        <ele>8.995395</ele>
        <time>2022-01-18T13:53:37.586Z</time>
      </trkpt>
      <trkpt lat="44.63037" lon="-0.99722">
        <ele>9.299453</ele>
        <time>2022-01-18T13:53:55.493Z</time>
      </trkpt>
      <trkpt lat="44.63127" lon="-0.99718">
        <ele>9.734456</ele>
        <time>2022-01-18T13:54:19.424Z</time>
      </trkpt>
      <trkpt lat="44.63159" lon="-0.99749">
        <ele>9.921367</ele>
        <time>2022-01-18T13:54:30.020Z</time>
      </trkpt>
      <trkpt lat="44.63205" lon="-0.99812">
        <ele>10.268599</ele>
        <time>2022-01-18T13:54:48.202Z</time>
      </trkpt>
      <trkpt lat="44.6323" lon="-0.99824">
        <ele>10.506846</ele>
        <time>2022-01-18T13:54:55.632Z</time>
      </trkpt>
      <trkpt lat="44.63311" lon="-0.99813">
        <ele>11.271332</ele>
        <time>2022-01-18T13:55:20.263Z</time>
      </trkpt>
      <trkpt lat="44.63322" lon="-0.99805">
        <ele>11.384107</ele>
        <time>2022-01-18T13:55:23.975Z</time>
      </trkpt>
      <trkpt lat="44.6334" lon="-0.9978">
        <ele>11.614638</ele>
        <time>2022-01-18T13:55:31.086Z</time>
      </trkpt>
      <trkpt lat="44.63375" lon="-0.99782">
        <ele>11.836323</ele>
        <time>2022-01-18T13:55:41.300Z</time>
      </trkpt>
      <trkpt lat="44.63399" lon="-0.99781">
        <ele>11.740859</ele>
        <time>2022-01-18T13:55:48.461Z</time>
      </trkpt>
      <trkpt lat="44.6341" lon="-0.99793">
        <ele>11.685493</ele>
        <time>2022-01-18T13:55:51.923Z</time>
      </trkpt>
      <trkpt lat="44.63418" lon="-0.9981">
        <ele>11.62805</ele>
        <time>2022-01-18T13:55:55.751Z</time>
      </trkpt>
      <trkpt lat="44.63455" lon="-0.99854">
        <ele>11.437876</ele>
        <time>2022-01-18T13:56:07.580Z</time>
      </trkpt>
      <trkpt lat="44.63519" lon="-0.99873">
        <ele>11.179196</ele>
        <time>2022-01-18T13:56:22.974Z</time>
      </trkpt>
      <trkpt lat="44.6354" lon="-0.99889">
        <ele>10.822326</ele>
        <time>2022-01-18T13:56:28.311Z</time>
      </trkpt>
      <trkpt lat="44.63549" lon="-0.99883">
        <ele>10.639362</ele>
        <time>2022-01-18T13:56:30.479Z</time>
      </trkpt>
      <trkpt lat="44.63558" lon="-0.99861">
        <ele>10.313454</ele>
        <time>2022-01-18T13:56:34.566Z</time>
      </trkpt>
      <trkpt lat="44.63567" lon="-0.99755">
        <ele>8.952404</ele>
        <time>2022-01-18T13:56:51.164Z</time>
      </trkpt>
      <trkpt lat="44.63603" lon="-0.99724">
        <ele>8.192324</ele>
        <time>2022-01-18T13:57:00.375Z</time>
      </trkpt>
      <trkpt lat="44.63663" lon="-0.99685">
        <ele>7.184941</ele>
        <time>2022-01-18T13:57:14.949Z</time>
      </trkpt>
      <trkpt lat="44.6373" lon="-0.99588">
        <ele>5.802103</ele>
        <time>2022-01-18T13:57:36.877Z</time>
      </trkpt>
      <trkpt lat="44.63739" lon="-0.99585">
        <ele>5.668201</ele>
        <time>2022-01-18T13:57:38.999Z</time>
      </trkpt>
      <trkpt lat="44.63741" lon="-0.99588">
        <ele>5.630279</ele>
        <time>2022-01-18T13:57:39.604Z</time>
      </trkpt>
      <trkpt lat="44.63788" lon="-0.99607">
        <ele>5.12772</ele>
        <time>2022-01-18T13:57:51.104Z</time>
      </trkpt>
      <trkpt lat="44.63815" lon="-0.99636">
        <ele>4.887522</ele>
        <time>2022-01-18T13:57:59.152Z</time>
      </trkpt>
      <trkpt lat="44.63829" lon="-0.99672">
        <ele>4.681303</ele>
        <time>2022-01-18T13:58:06.064Z</time>
      </trkpt>
      <trkpt lat="44.63853" lon="-0.9968">
        <ele>4.502391</ele>
        <time>2022-01-18T13:58:12.130Z</time>
      </trkpt>
      <trkpt lat="44.63857" lon="-0.99692">
        <ele>4.434693</ele>
        <time>2022-01-18T13:58:14.412Z</time>
      </trkpt>
      <trkpt lat="44.63851" lon="-0.99719">
        <ele>4.291409</ele>
        <time>2022-01-18T13:58:19.313Z</time>
      </trkpt>
      <trkpt lat="44.63854" lon="-0.99737">
        <ele>4.201268</ele>
        <time>2022-01-18T13:58:22.410Z</time>
      </trkpt>
      <trkpt lat="44.63865" lon="-0.9975">
        <ele>4.096431</ele>
        <time>2022-01-18T13:58:25.986Z</time>
      </trkpt>
      <trkpt lat="44.63909" lon="-0.99775">
        <ele>4.049382</ele>
        <time>2022-01-18T13:58:37.707Z</time>
      </trkpt>
      <trkpt lat="44.63923" lon="-0.99823">
        <ele>4.04805</ele>
        <time>2022-01-18T13:58:47.079Z</time>
      </trkpt>
      <trkpt lat="44.63928" lon="-0.99868">
        <ele>4.046896</ele>
        <time>2022-01-18T13:58:55.223Z</time>
      </trkpt>
      <trkpt lat="44.63936" lon="-0.9988">
        <ele>4.046502</ele>
        <time>2022-01-18T13:58:58.153Z</time>
      </trkpt>
      <trkpt lat="44.63946" lon="-0.99881">
        <ele>4.046123</ele>
        <time>2022-01-18T13:59:00.872Z</time>
      </trkpt>
      <trkpt lat="44.63947" lon="-0.99879">
        <ele>4.046059</ele>
        <time>2022-01-18T13:59:01.288Z</time>
      </trkpt>
      <trkpt lat="44.63947" lon="-0.99866">
        <ele>4.045747</ele>
        <time>2022-01-18T13:59:03.544Z</time>
      </trkpt>
      <trkpt lat="44.63947" lon="-0.99851">
        <ele>4.045369</ele>
        <time>2022-01-18T13:59:06.510Z</time>
      </trkpt>
      <trkpt lat="44.63947" lon="-0.99831">
        <ele>4.044845</ele>
        <time>2022-01-18T13:59:10.337Z</time>
      </trkpt>
      <trkpt lat="44.63969" lon="-0.9978">
        <ele>4.324124</ele>
        <time>2022-01-18T13:59:21.988Z</time>
      </trkpt>
      <trkpt lat="44.64018" lon="-0.99741">
        <ele>4.837971</ele>
        <time>2022-01-18T13:59:38.252Z</time>
      </trkpt>
      <trkpt lat="44.64062" lon="-0.99708">
        <ele>5.294624</ele>
        <time>2022-01-18T13:59:52.823Z</time>
      </trkpt>
      <trkpt lat="44.64066" lon="-0.99703">
        <ele>5.344926</ele>
        <time>2022-01-18T13:59:54.648Z</time>
      </trkpt>
      <trkpt lat="44.64087" lon="-0.99663">
        <ele>5.665431</ele>
        <time>2022-01-18T14:00:05.361Z</time>
      </trkpt>
      <trkpt lat="44.64097" lon="-0.99653">
        <ele>5.800187</ele>
        <time>2022-01-18T14:00:09.157Z</time>
      </trkpt>
      <trkpt lat="44.64214" lon="-0.99612">
        <ele>7.162457</ele>
        <time>2022-01-18T14:00:46.327Z</time>
      </trkpt>
      <trkpt lat="44.64221" lon="-0.99609">
        <ele>7.250498</ele>
        <time>2022-01-18T14:00:48.844Z</time>
      </trkpt>
      <trkpt lat="44.64233" lon="-0.99606">
        <ele>7.38587</ele>
        <time>2022-01-18T14:00:52.218Z</time>
      </trkpt>
      <trkpt lat="44.64252" lon="-0.99602">
        <ele>7.599785</ele>
        <time>2022-01-18T14:00:57.547Z</time>
      </trkpt>
      <trkpt lat="44.64254" lon="-0.99611">
        <ele>7.682772</ele>
        <time>2022-01-18T14:00:59.099Z</time>
      </trkpt>
      <trkpt lat="44.64278" lon="-0.99644">
        <ele>7.679608</ele>
        <time>2022-01-18T14:01:05.198Z</time>
      </trkpt>
      <trkpt lat="44.64284" lon="-0.99647">
        <ele>7.670416</ele>
        <time>2022-01-18T14:01:06.389Z</time>
      </trkpt>
      <trkpt lat="44.64288" lon="-0.99639">
        <ele>7.659427</ele>
        <time>2022-01-18T14:01:07.599Z</time>
      </trkpt>
      <trkpt lat="44.64293" lon="-0.99633">
        <ele>7.649935</ele>
        <time>2022-01-18T14:01:08.686Z</time>
      </trkpt>
      <trkpt lat="44.64413" lon="-0.99525">
        <ele>7.407643</ele>
        <time>2022-01-18T14:01:30.490Z</time>
      </trkpt>
      <trkpt lat="44.64445" lon="-0.99497">
        <ele>7.257321</ele>
        <time>2022-01-18T14:01:35.820Z</time>
      </trkpt>
      <trkpt lat="44.64457" lon="-0.99487">
        <ele>7.202211</ele>
        <time>2022-01-18T14:01:37.835Z</time>
      </trkpt>
      <trkpt lat="44.64475" lon="-0.99467">
        <ele>7.112536</ele>
        <time>2022-01-18T14:01:41.151Z</time>
      </trkpt>
      <trkpt lat="44.64506" lon="-0.99437">
        <ele>6.961075</ele>
        <time>2022-01-18T14:01:47.038Z</time>
      </trkpt>
      <trkpt lat="44.64521" lon="-0.99417">
        <ele>6.879598</ele>
        <time>2022-01-18T14:01:50.331Z</time>
      </trkpt>
      <trkpt lat="44.64527" lon="-0.99393">
        <ele>6.805902</ele>
        <time>2022-01-18T14:01:53.335Z</time>
      </trkpt>
      <trkpt lat="44.64529" lon="-0.9936">
        <ele>6.763161</ele>
        <time>2022-01-18T14:01:57.033Z</time>
      </trkpt>
      <trkpt lat="44.64537" lon="-0.99359">
        <ele>6.790001</ele>
        <time>2022-01-18T14:01:58.930Z</time>
      </trkpt>
      <trkpt lat="44.64638" lon="-0.99335">
        <ele>7.157875</ele>
        <time>2022-01-18T14:02:26.026Z</time>
      </trkpt>
      <trkpt lat="44.64654" lon="-0.9952">
        <ele>7.755875</ele>
        <time>2022-01-18T14:03:03.512Z</time>
      </trkpt>
      <trkpt lat="44.64676" lon="-0.99542">
        <ele>7.899648</ele>
        <time>2022-01-18T14:03:10.814Z</time>
      </trkpt>
      <trkpt lat="44.64754" lon="-0.99563">
        <ele>8.330431</ele>
        <time>2022-01-18T14:03:32.249Z</time>
      </trkpt>
      <trkpt lat="44.6478" lon="-0.99586">
        <ele>8.420681</ele>
        <time>2022-01-18T14:03:40.684Z</time>
      </trkpt>
      <trkpt lat="44.64789" lon="-0.99583">
        <ele>8.443399</ele>
        <time>2022-01-18T14:03:43.006Z</time>
      </trkpt>
      <trkpt lat="44.64802" lon="-0.99592">
        <ele>8.483442</ele>
        <time>2022-01-18T14:03:47.360Z</time>
      </trkpt>
      <trkpt lat="44.64821" lon="-0.99617">
        <ele>8.549731</ele>
        <time>2022-01-18T14:03:54.233Z</time>
      </trkpt>
      <trkpt lat="44.64831" lon="-0.99622">
        <ele>8.577451</ele>
        <time>2022-01-18T14:03:57.018Z</time>
      </trkpt>
      <trkpt lat="44.64856" lon="-0.99623">
        <ele>8.645091</ele>
        <time>2022-01-18T14:04:03.809Z</time>
      </trkpt>
      <trkpt lat="44.64887" lon="-0.99602">
        <ele>8.734392</ele>
        <time>2022-01-18T14:04:12.623Z</time>
      </trkpt>
      <trkpt lat="44.64945" lon="-0.99594">
        <ele>8.84982</ele>
        <time>2022-01-18T14:04:27.473Z</time>
      </trkpt>
      <trkpt lat="44.64979" lon="-0.99584">
        <ele>8.889396</ele>
        <time>2022-01-18T14:04:36.454Z</time>
      </trkpt>
      <trkpt lat="44.64999" lon="-0.99604">
        <ele>8.91783</ele>
        <time>2022-01-18T14:04:42.870Z</time>
      </trkpt>
      <trkpt lat="44.65008" lon="-0.9961">
        <ele>8.928829</ele>
        <time>2022-01-18T14:04:45.392Z</time>
      </trkpt>
      <trkpt lat="44.65024" lon="-0.99626">
        <ele>8.952086</ele>
        <time>2022-01-18T14:04:50.618Z</time>
      </trkpt>
      <trkpt lat="44.65056" lon="-0.99655">
        <ele>8.995437</ele>
        <time>2022-01-18T14:05:00.472Z</time>
      </trkpt>
      <trkpt lat="44.65068" lon="-0.99663">
        <ele>9.010622</ele>
        <time>2022-01-18T14:05:03.994Z</time>
      </trkpt>
      <trkpt lat="44.6509" lon="-0.99677">
        <ele>9.02324</ele>
        <time>2022-01-18T14:05:10.141Z</time>
      </trkpt>
      <trkpt lat="44.65099" lon="-0.99683">
        <ele>9.018228</ele>
        <time>2022-01-18T14:05:12.932Z</time>
      </trkpt>
      <trkpt lat="44.65119" lon="-0.99696">
        <ele>9.008017</ele>
        <time>2022-01-18T14:05:18.394Z</time>
      </trkpt>
      <trkpt lat="44.65186" lon="-0.99739">
        <ele>8.972643</ele>
        <time>2022-01-18T14:05:37.273Z</time>
      </trkpt>
      <trkpt lat="44.65207" lon="-0.99748">
        <ele>8.962252</ele>
        <time>2022-01-18T14:05:42.862Z</time>
      </trkpt>
      <trkpt lat="44.65223" lon="-0.99754">
        <ele>8.954168</ele>
        <time>2022-01-18T14:05:47.078Z</time>
      </trkpt>
      <trkpt lat="44.65256" lon="-0.99772">
        <ele>8.887143</ele>
        <time>2022-01-18T14:05:55.779Z</time>
      </trkpt>
      <trkpt lat="44.65299" lon="-0.99779">
        <ele>8.630641</ele>
        <time>2022-01-18T14:06:06.220Z</time>
      </trkpt>
      <trkpt lat="44.65341" lon="-0.99824">
        <ele>8.312578</ele>
        <time>2022-01-18T14:06:18.837Z</time>
      </trkpt>
      <trkpt lat="44.65374" lon="-0.99844">
        <ele>8.099139</ele>
        <time>2022-01-18T14:06:27.297Z</time>
      </trkpt>
      <trkpt lat="44.65429" lon="-0.9986">
        <ele>7.905188</ele>
        <time>2022-01-18T14:06:40.779Z</time>
      </trkpt>
      <trkpt lat="44.65438" lon="-0.99869">
        <ele>7.92881</ele>
        <time>2022-01-18T14:06:43.363Z</time>
      </trkpt>
      <trkpt lat="44.65441" lon="-0.99868">
        <ele>7.936968</ele>
        <time>2022-01-18T14:06:44.348Z</time>
      </trkpt>
      <trkpt lat="44.65445" lon="-0.9988">
        <ele>7.95856</ele>
        <time>2022-01-18T14:06:45.890Z</time>
      </trkpt>
      <trkpt lat="44.6547" lon="-0.9991">
        <ele>8.031842</ele>
        <time>2022-01-18T14:06:51.186Z</time>
      </trkpt>
      <trkpt lat="44.65533" lon="-0.99947">
        <ele>8.182335</ele>
        <time>2022-01-18T14:07:03.462Z</time>
      </trkpt>
      <trkpt lat="44.6555" lon="-0.99958">
        <ele>8.224734</ele>
        <time>2022-01-18T14:07:07.034Z</time>
      </trkpt>
      <trkpt lat="44.65558" lon="-0.99965">
        <ele>8.246265</ele>
        <time>2022-01-18T14:07:08.888Z</time>
      </trkpt>
      <trkpt lat="44.6557" lon="-0.99977">
        <ele>8.289493</ele>
        <time>2022-01-18T14:07:12.187Z</time>
      </trkpt>
      <trkpt lat="44.65578" lon="-0.99987">
        <ele>8.343206</ele>
        <time>2022-01-18T14:07:13.940Z</time>
      </trkpt>
      <trkpt lat="44.65607" lon="-1.0003">
        <ele>8.538742</ele>
        <time>2022-01-18T14:07:22.227Z</time>
      </trkpt>
      <trkpt lat="44.65618" lon="-1.00047">
        <ele>8.615081</ele>
        <time>2022-01-18T14:07:25.932Z</time>
      </trkpt>
      <trkpt lat="44.65652" lon="-1.00099">
        <ele>8.848432</ele>
        <time>2022-01-18T14:07:34.747Z</time>
      </trkpt>
      <trkpt lat="44.65661" lon="-1.00115">
        <ele>8.917198</ele>
        <time>2022-01-18T14:07:37.643Z</time>
      </trkpt>
      <trkpt lat="44.65664" lon="-1.00127">
        <ele>8.959276</ele>
        <time>2022-01-18T14:07:39.783Z</time>
      </trkpt>
      <trkpt lat="44.65666" lon="-1.00139">
        <ele>8.998651</ele>
        <time>2022-01-18T14:07:40.980Z</time>
      </trkpt>
      <trkpt lat="44.65642" lon="-1.00417">
        <ele>8.187339</ele>
        <time>2022-01-18T14:08:10.601Z</time>
      </trkpt>
      <trkpt lat="44.65643" lon="-1.0051">
        <ele>8.040246</ele>
        <time>2022-01-18T14:08:20.828Z</time>
      </trkpt>
      <trkpt lat="44.65652" lon="-1.0059">
        <ele>7.922664</ele>
        <time>2022-01-18T14:08:30.529Z</time>
      </trkpt>
      <trkpt lat="44.65731" lon="-1.00929">
        <ele>6.948165</ele>
        <time>2022-01-18T14:09:10.546Z</time>
      </trkpt>
      <trkpt lat="44.65735" lon="-1.00944">
        <ele>6.734165</ele>
        <time>2022-01-18T14:09:12.149Z</time>
      </trkpt>
      <trkpt lat="44.6574" lon="-1.00952">
        <ele>6.602789</ele>
        <time>2022-01-18T14:09:13.136Z</time>
      </trkpt>
      <trkpt lat="44.65732" lon="-1.00954">
        <ele>6.456894</ele>
        <time>2022-01-18T14:09:14.000Z</time>
      </trkpt>
      <trkpt lat="44.65677" lon="-1.01066">
        <ele>4.675559</ele>
        <time>2022-01-18T14:09:25.914Z</time>
      </trkpt>
      <trkpt lat="44.65698" lon="-1.01084">
        <ele>4.217101</ele>
        <time>2022-01-18T14:09:31.182Z</time>
      </trkpt>
      <trkpt lat="44.65687" lon="-1.01113">
        <ele>3.84587</ele>
        <time>2022-01-18T14:09:36.031Z</time>
      </trkpt>
      <trkpt lat="44.65669" lon="-1.01167">
        <ele>3.455246</ele>
        <time>2022-01-18T14:09:45.583Z</time>
      </trkpt>
      <trkpt lat="44.65677" lon="-1.01203">
        <ele>3.210112</ele>
        <time>2022-01-18T14:09:51.764Z</time>
      </trkpt>
      <trkpt lat="44.65704" lon="-1.0126">
        <ele>2.756606</ele>
        <time>2022-01-18T14:10:03.717Z</time>
      </trkpt>
      <trkpt lat="44.65755" lon="-1.01301">
        <ele>2.243971</ele>
        <time>2022-01-18T14:10:18.533Z</time>
      </trkpt>
      <trkpt lat="44.65846" lon="-1.01333">
        <ele>2.092231</ele>
        <time>2022-01-18T14:10:42.200Z</time>
      </trkpt>
      <trkpt lat="44.65858" lon="-1.01328">
        <ele>2.070974</ele>
        <time>2022-01-18T14:10:45.573Z</time>
      </trkpt>
      <trkpt lat="44.65865" lon="-1.0134">
        <ele>2.053781</ele>
        <time>2022-01-18T14:10:48.165Z</time>
      </trkpt>
      <trkpt lat="44.65886" lon="-1.01358">
        <ele>2.013817</ele>
        <time>2022-01-18T14:10:54.345Z</time>
      </trkpt>
      <trkpt lat="44.65941" lon="-1.01371">
        <ele>1.897898</ele>
        <time>2022-01-18T14:11:08.139Z</time>
      </trkpt>
      <trkpt lat="44.65981" lon="-1.01391">
        <ele>1.78069</ele>
        <time>2022-01-18T14:11:18.322Z</time>
      </trkpt>
      <trkpt lat="44.66099" lon="-1.01512">
        <ele>1.533436</ele>
        <time>2022-01-18T14:11:54.403Z</time>
      </trkpt>
      <trkpt lat="44.66253" lon="-1.01709">
        <ele>2.231545</ele>
        <time>2022-01-18T14:12:51.039Z</time>
      </trkpt>
      <trkpt lat="44.66274" lon="-1.01725">
        <ele>2.344703</ele>
        <time>2022-01-18T14:12:57.629Z</time>
      </trkpt>
      <trkpt lat="44.66283" lon="-1.01726">
        <ele>2.390751</ele>
        <time>2022-01-18T14:13:00.283Z</time>
      </trkpt>
      <trkpt lat="44.66373" lon="-1.01687">
        <ele>2.820467</ele>
        <time>2022-01-18T14:13:26.113Z</time>
      </trkpt>
      <trkpt lat="44.66438" lon="-1.01701">
        <ele>2.784202</ele>
        <time>2022-01-18T14:13:43.635Z</time>
      </trkpt>
      <trkpt lat="44.66471" lon="-1.0169">
        <ele>2.765749</ele>
        <time>2022-01-18T14:13:52.103Z</time>
      </trkpt>
      <trkpt lat="44.66485" lon="-1.01692">
        <ele>2.75787</ele>
        <time>2022-01-18T14:13:55.628Z</time>
      </trkpt>
      <trkpt lat="44.66497" lon="-1.01684">
        <ele>2.750733</ele>
        <time>2022-01-18T14:13:58.856Z</time>
      </trkpt>
      <trkpt lat="44.66519" lon="-1.01686">
        <ele>2.738744</ele>
        <time>2022-01-18T14:14:04.194Z</time>
      </trkpt>
      <trkpt lat="44.66532" lon="-1.01695">
        <ele>2.730863</ele>
        <time>2022-01-18T14:14:07.715Z</time>
      </trkpt>
      <trkpt lat="44.66545" lon="-1.01736">
        <ele>2.616078</ele>
        <time>2022-01-18T14:14:15.579Z</time>
      </trkpt>
      <trkpt lat="44.66583" lon="-1.01758">
        <ele>2.396138</ele>
        <time>2022-01-18T14:14:25.556Z</time>
      </trkpt>
      <trkpt lat="44.66613" lon="-1.01783">
        <ele>2.210345</ele>
        <time>2022-01-18T14:14:33.959Z</time>
      </trkpt>
      <trkpt lat="44.66631" lon="-1.01777">
        <ele>2.109505</ele>
        <time>2022-01-18T14:14:38.525Z</time>
      </trkpt>
      <trkpt lat="44.66649" lon="-1.01776">
        <ele>2.012524</ele>
        <time>2022-01-18T14:14:42.913Z</time>
      </trkpt>
      <trkpt lat="44.66689" lon="-1.01754">
        <ele>1.78151</ele>
        <time>2022-01-18T14:14:53.324Z</time>
      </trkpt>
      <trkpt lat="44.6673" lon="-1.01767">
        <ele>1.65281</ele>
        <time>2022-01-18T14:15:03.412Z</time>
      </trkpt>
      <trkpt lat="44.66816" lon="-1.01753">
        <ele>1.408869</ele>
        <time>2022-01-18T14:15:24.618Z</time>
      </trkpt>
      <trkpt lat="44.66826" lon="-1.01758">
        <ele>1.378186</ele>
        <time>2022-01-18T14:15:27.367Z</time>
      </trkpt>
      <trkpt lat="44.66835" lon="-1.01765">
        <ele>1.350688</ele>
        <time>2022-01-18T14:15:29.763Z</time>
      </trkpt>
      <trkpt lat="44.66838" lon="-1.01757">
        <ele>1.332479</ele>
        <time>2022-01-18T14:15:31.317Z</time>
      </trkpt>
      <trkpt lat="44.67015" lon="-1.01342">
        <ele>2.014806</ele>
        <time>2022-01-18T14:17:02.707Z</time>
      </trkpt>
      <trkpt lat="44.6703" lon="-1.01318">
        <ele>2.066612</ele>
        <time>2022-01-18T14:17:08.439Z</time>
      </trkpt>
      <trkpt lat="44.67043" lon="-1.01315">
        <ele>2.096597</ele>
        <time>2022-01-18T14:17:12.160Z</time>
      </trkpt>
      <trkpt lat="44.67062" lon="-1.01318">
        <ele>2.11412</ele>
        <time>2022-01-18T14:17:16.857Z</time>
      </trkpt>
      <trkpt lat="44.67136" lon="-1.01338">
        <ele>2.107735</ele>
        <time>2022-01-18T14:17:36.302Z</time>
      </trkpt>
      <trkpt lat="44.67153" lon="-1.01344">
        <ele>2.106276</ele>
        <time>2022-01-18T14:17:40.942Z</time>
      </trkpt>
      <trkpt lat="44.67163" lon="-1.01353">
        <ele>2.105271</ele>
        <time>2022-01-18T14:17:43.841Z</time>
      </trkpt>
      <trkpt lat="44.67234" lon="-1.0138">
        <ele>2.094369</ele>
        <time>2022-01-18T14:18:02.226Z</time>
      </trkpt>
      <trkpt lat="44.67261" lon="-1.01425">
        <ele>2.069382</ele>
        <time>2022-01-18T14:18:12.656Z</time>
      </trkpt>
      <trkpt lat="44.67282" lon="-1.0148">
        <ele>2.042648</ele>
        <time>2022-01-18T14:18:23.881Z</time>
      </trkpt>
      <trkpt lat="44.67304" lon="-1.01522">
        <ele>2.020536</ele>
        <time>2022-01-18T14:18:33.255Z</time>
      </trkpt>
      <trkpt lat="44.67461" lon="-1.01615">
        <ele>2.294474</ele>
        <time>2022-01-18T14:19:17.668Z</time>
      </trkpt>
      <trkpt lat="44.67471" lon="-1.01626">
        <ele>2.325545</ele>
        <time>2022-01-18T14:19:20.965Z</time>
      </trkpt>
      <trkpt lat="44.6748" lon="-1.01625">
        <ele>2.347196</ele>
        <time>2022-01-18T14:19:23.414Z</time>
      </trkpt>
      <trkpt lat="44.67557" lon="-1.01612">
        <ele>2.565078</ele>
        <time>2022-01-18T14:19:44.341Z</time>
      </trkpt>
      <trkpt lat="44.67613" lon="-1.01618">
        <ele>2.740673</ele>
        <time>2022-01-18T14:19:59.488Z</time>
      </trkpt>
      <trkpt lat="44.6766" lon="-1.01633">
        <ele>2.892278</ele>
        <time>2022-01-18T14:20:12.529Z</time>
      </trkpt>
      <trkpt lat="44.67719" lon="-1.01662">
        <ele>2.97642</ele>
        <time>2022-01-18T14:20:28.937Z</time>
      </trkpt>
      <trkpt lat="44.67883" lon="-1.01706">
        <ele>2.895184</ele>
        <time>2022-01-18T14:21:10.627Z</time>
      </trkpt>
      <trkpt lat="44.68028" lon="-1.01755">
        <ele>3.062532</ele>
        <time>2022-01-18T14:21:49.235Z</time>
      </trkpt>
      <trkpt lat="44.6804" lon="-1.01756">
        <ele>3.075777</ele>
        <time>2022-01-18T14:21:52.263Z</time>
      </trkpt>
      <trkpt lat="44.68046" lon="-1.01755">
        <ele>3.102472</ele>
        <time>2022-01-18T14:21:53.880Z</time>
      </trkpt>
      <trkpt lat="44.68054" lon="-1.0176">
        <ele>3.157166</ele>
        <time>2022-01-18T14:21:56.410Z</time>
      </trkpt>
      <trkpt lat="44.68088" lon="-1.01777">
        <ele>3.373274</ele>
        <time>2022-01-18T14:22:06.226Z</time>
      </trkpt>
      <trkpt lat="44.68092" lon="-1.01777">
        <ele>3.393748</ele>
        <time>2022-01-18T14:22:07.369Z</time>
      </trkpt>
      <trkpt lat="44.681" lon="-1.01777">
        <ele>3.446727</ele>
        <time>2022-01-18T14:22:09.774Z</time>
      </trkpt>
      <trkpt lat="44.68102" lon="-1.01769">
        <ele>3.480615</ele>
        <time>2022-01-18T14:22:10.659Z</time>
      </trkpt>
      <trkpt lat="44.68105" lon="-1.01768">
        <ele>3.494982</ele>
        <time>2022-01-18T14:22:11.187Z</time>
      </trkpt>
      <trkpt lat="44.68121" lon="-1.01755">
        <ele>3.609264</ele>
        <time>2022-01-18T14:22:14.812Z</time>
      </trkpt>
      <trkpt lat="44.68127" lon="-1.01753">
        <ele>3.643078</ele>
        <time>2022-01-18T14:22:15.954Z</time>
      </trkpt>
      <trkpt lat="44.68136" lon="-1.01752">
        <ele>3.702524</ele>
        <time>2022-01-18T14:22:17.610Z</time>
      </trkpt>
      <trkpt lat="44.6816" lon="-1.01747">
        <ele>3.848654</ele>
        <time>2022-01-18T14:22:22.552Z</time>
      </trkpt>
      <trkpt lat="44.68161" lon="-1.01738">
        <ele>3.884267</ele>
        <time>2022-01-18T14:22:24.181Z</time>
      </trkpt>
      <trkpt lat="44.6817" lon="-1.01725">
        <ele>3.960598</ele>
        <time>2022-01-18T14:22:27.730Z</time>
      </trkpt>
      <trkpt lat="44.68187" lon="-1.01695">
        <ele>4.124399</ele>
        <time>2022-01-18T14:22:35.827Z</time>
      </trkpt>
      <trkpt lat="44.68231" lon="-1.0162">
        <ele>4.426471</ele>
        <time>2022-01-18T14:22:55.237Z</time>
      </trkpt>
      <trkpt lat="44.68237" lon="-1.01619">
        <ele>4.449316</ele>
        <time>2022-01-18T14:22:56.675Z</time>
      </trkpt>
      <trkpt lat="44.68243" lon="-1.01614">
        <ele>4.478014</ele>
        <time>2022-01-18T14:23:01.470Z</time>
      </trkpt>
      <trkpt lat="44.68247" lon="-1.01609">
        <ele>4.500627</ele>
        <time>2022-01-18T14:23:05.217Z</time>
      </trkpt>
      <trkpt lat="44.68252" lon="-1.01606">
        <ele>4.522903</ele>
        <time>2022-01-18T14:23:08.943Z</time>
      </trkpt>
      <trkpt lat="44.68254" lon="-1.01601">
        <ele>4.541977</ele>
        <time>2022-01-18T14:23:12.119Z</time>
      </trkpt>
      <trkpt lat="44.68259" lon="-1.01601">
        <ele>4.564156</ele>
        <time>2022-01-18T14:23:12.979Z</time>
      </trkpt>
      <trkpt lat="44.68264" lon="-1.01597">
        <ele>4.586378</ele>
        <time>2022-01-18T14:23:13.861Z</time>
      </trkpt>
      <trkpt lat="44.68276" lon="-1.01573">
        <ele>4.67597</ele>
        <time>2022-01-18T14:23:17.499Z</time>
      </trkpt>
      <trkpt lat="44.68291" lon="-1.01544">
        <ele>4.781059</ele>
        <time>2022-01-18T14:23:21.736Z</time>
      </trkpt>
      <trkpt lat="44.68303" lon="-1.0152">
        <ele>4.868228</ele>
        <time>2022-01-18T14:23:25.436Z</time>
      </trkpt>
      <trkpt lat="44.68308" lon="-1.0151">
        <ele>4.904796</ele>
        <time>2022-01-18T14:23:26.954Z</time>
      </trkpt>
      <trkpt lat="44.6831" lon="-1.01507">
        <ele>4.916858</ele>
        <time>2022-01-18T14:23:27.569Z</time>
      </trkpt>
      <trkpt lat="44.68312" lon="-1.01503">
        <ele>4.925755</ele>
        <time>2022-01-18T14:23:28.188Z</time>
      </trkpt>
      <trkpt lat="44.68376" lon="-1.01386">
        <ele>5.193355</ele>
        <time>2022-01-18T14:23:46.552Z</time>
      </trkpt>
      <trkpt lat="44.68383" lon="-1.01375">
        <ele>5.220058</ele>
        <time>2022-01-18T14:23:48.167Z</time>
      </trkpt>
      <trkpt lat="44.68389" lon="-1.01363">
        <ele>5.246445</ele>
        <time>2022-01-18T14:23:50.015Z</time>
      </trkpt>
      <trkpt lat="44.68424" lon="-1.01295">
        <ele>5.415548</ele>
        <time>2022-01-18T14:23:59.842Z</time>
      </trkpt>
      <trkpt lat="44.68427" lon="-1.01297">
        <ele>5.429756</ele>
        <time>2022-01-18T14:24:00.346Z</time>
      </trkpt>
      <trkpt lat="44.68482" lon="-1.01342">
        <ele>5.700247</ele>
        <time>2022-01-18T14:24:11.731Z</time>
      </trkpt>
      <trkpt lat="44.68487" lon="-1.01346">
        <ele>5.723176</ele>
        <time>2022-01-18T14:24:12.592Z</time>
      </trkpt>
      <trkpt lat="44.68492" lon="-1.01349">
        <ele>5.745206</ele>
        <time>2022-01-18T14:24:13.724Z</time>
      </trkpt>
      <trkpt lat="44.68553" lon="-1.01359">
        <ele>6.008804</ele>
        <time>2022-01-18T14:24:24.885Z</time>
      </trkpt>
      <trkpt lat="44.68579" lon="-1.01372">
        <ele>6.12329</ele>
        <time>2022-01-18T14:24:29.898Z</time>
      </trkpt>
      <trkpt lat="44.68587" lon="-1.01378">
        <ele>6.171762</ele>
        <time>2022-01-18T14:24:31.463Z</time>
      </trkpt>
      <trkpt lat="44.68589" lon="-1.01373">
        <ele>6.19698</ele>
        <time>2022-01-18T14:24:32.109Z</time>
      </trkpt>
      <trkpt lat="44.68592" lon="-1.01375">
        <ele>6.217644</ele>
        <time>2022-01-18T14:24:33.038Z</time>
      </trkpt>
      <trkpt lat="44.68688" lon="-1.01442">
        <ele>6.873168</ele>
        <time>2022-01-18T14:24:52.387Z</time>
      </trkpt>
      <trkpt lat="44.6869" lon="-1.01444">
        <ele>6.888295</ele>
        <time>2022-01-18T14:24:53.172Z</time>
      </trkpt>
      <trkpt lat="44.68693" lon="-1.01446">
        <ele>6.910242</ele>
        <time>2022-01-18T14:24:53.717Z</time>
      </trkpt>
      <trkpt lat="44.68829" lon="-1.01527">
        <ele>7.609916</ele>
        <time>2022-01-18T14:25:18.912Z</time>
      </trkpt>
      <trkpt lat="44.68876" lon="-1.01556">
        <ele>7.812518</ele>
        <time>2022-01-18T14:25:27.071Z</time>
      </trkpt>
      <trkpt lat="44.68881" lon="-1.01559">
        <ele>7.832405</ele>
        <time>2022-01-18T14:25:27.873Z</time>
      </trkpt>
      <trkpt lat="44.68953" lon="-1.01603">
        <ele>8.224416</ele>
        <time>2022-01-18T14:25:41.467Z</time>
      </trkpt>
      <trkpt lat="44.68991" lon="-1.01624">
        <ele>8.449588</ele>
        <time>2022-01-18T14:25:48.827Z</time>
      </trkpt>
      <trkpt lat="44.68993" lon="-1.01626">
        <ele>8.463277</ele>
        <time>2022-01-18T14:25:49.216Z</time>
      </trkpt>
      <trkpt lat="44.68996" lon="-1.01627">
        <ele>8.477117</ele>
        <time>2022-01-18T14:25:49.937Z</time>
      </trkpt>
      <trkpt lat="44.69134" lon="-1.01708">
        <ele>9.138315</ele>
        <time>2022-01-18T14:26:16.116Z</time>
      </trkpt>
      <trkpt lat="44.69189" lon="-1.0174">
        <ele>9.316664</ele>
        <time>2022-01-18T14:26:25.472Z</time>
      </trkpt>
      <trkpt lat="44.69261" lon="-1.01783">
        <ele>9.62189</ele>
        <time>2022-01-18T14:26:37.930Z</time>
      </trkpt>
      <trkpt lat="44.6944" lon="-1.01889">
        <ele>10.836059</ele>
        <time>2022-01-18T14:27:12.915Z</time>
      </trkpt>
      <trkpt lat="44.69443" lon="-1.01891">
        <ele>10.863257</ele>
        <time>2022-01-18T14:27:13.673Z</time>
      </trkpt>
      <trkpt lat="44.69605" lon="-1.01987">
        <ele>11.841565</ele>
        <time>2022-01-18T14:27:46.817Z</time>
      </trkpt>
      <trkpt lat="44.69659" lon="-1.02018">
        <ele>11.620267</ele>
        <time>2022-01-18T14:27:55.683Z</time>
      </trkpt>
      <trkpt lat="44.69682" lon="-1.02031">
        <ele>11.527472</ele>
        <time>2022-01-18T14:27:59.055Z</time>
      </trkpt>
      <trkpt lat="44.69759" lon="-1.02084">
        <ele>10.96632</ele>
        <time>2022-01-18T14:28:10.404Z</time>
      </trkpt>
      <trkpt lat="44.69783" lon="-1.02103">
        <ele>10.609192</ele>
        <time>2022-01-18T14:28:13.852Z</time>
      </trkpt>
      <trkpt lat="44.69786" lon="-1.02106">
        <ele>10.559478</ele>
        <time>2022-01-18T14:28:14.379Z</time>
      </trkpt>
      <trkpt lat="44.69793" lon="-1.02111">
        <ele>10.45468</ele>
        <time>2022-01-18T14:28:15.466Z</time>
      </trkpt>
      <trkpt lat="44.69799" lon="-1.02116">
        <ele>10.37798</ele>
        <time>2022-01-18T14:28:16.255Z</time>
      </trkpt>
      <trkpt lat="44.6985" lon="-1.02159">
        <ele>9.606241</ele>
        <time>2022-01-18T14:28:24.469Z</time>
      </trkpt>
      <trkpt lat="44.69908" lon="-1.02215">
        <ele>9.072515</ele>
        <time>2022-01-18T14:28:34.590Z</time>
      </trkpt>
      <trkpt lat="44.69947" lon="-1.02227">
        <ele>9.233128</ele>
        <time>2022-01-18T14:28:44.372Z</time>
      </trkpt>
      <trkpt lat="44.69976" lon="-1.02214">
        <ele>9.35792</ele>
        <time>2022-01-18T14:28:52.370Z</time>
      </trkpt>
      <trkpt lat="44.70045" lon="-1.02118">
        <ele>9.870806</ele>
        <time>2022-01-18T14:29:21.313Z</time>
      </trkpt>
      <trkpt lat="44.70053" lon="-1.02082">
        <ele>10.329442</ele>
        <time>2022-01-18T14:29:30.327Z</time>
      </trkpt>
      <trkpt lat="44.70022" lon="-1.02035">
        <ele>11.096874</ele>
        <time>2022-01-18T14:29:45.426Z</time>
      </trkpt>
      <trkpt lat="44.70006" lon="-1.02012">
        <ele>11.480451</ele>
        <time>2022-01-18T14:29:53.080Z</time>
      </trkpt>
      <trkpt lat="44.70087" lon="-1.01872">
        <ele>13.063716</ele>
        <time>2022-01-18T14:30:34.462Z</time>
      </trkpt>
      <trkpt lat="44.70515" lon="-1.01138">
        <ele>16.608112</ele>
        <time>2022-01-18T14:33:39.072Z</time>
      </trkpt>
      <trkpt lat="44.7059" lon="-1.00997">
        <ele>15.483438</ele>
        <time>2022-01-18T14:34:08.359Z</time>
      </trkpt>
      <trkpt lat="44.70619" lon="-1.01012">
        <ele>15.207141</ele>
        <time>2022-01-18T14:34:15.317Z</time>
      </trkpt>
      <trkpt lat="44.70633" lon="-1.01013">
        <ele>15.074468</ele>
        <time>2022-01-18T14:34:18.647Z</time>
      </trkpt>
      <trkpt lat="44.70696" lon="-1.00978">
        <ele>14.272429</ele>
        <time>2022-01-18T14:34:33.809Z</time>
      </trkpt>
      <trkpt lat="44.7075" lon="-1.00961">
        <ele>13.605335</ele>
        <time>2022-01-18T14:34:46.437Z</time>
      </trkpt>
      <trkpt lat="44.70784" lon="-1.00956">
        <ele>13.191863</ele>
        <time>2022-01-18T14:34:54.490Z</time>
      </trkpt>
      <trkpt lat="44.70884" lon="-1.00967">
        <ele>12.737538</ele>
        <time>2022-01-18T14:35:18.645Z</time>
      </trkpt>
      <trkpt lat="44.70908" lon="-1.00963">
        <ele>12.680796</ele>
        <time>2022-01-18T14:35:24.858Z</time>
      </trkpt>
      <trkpt lat="44.70934" lon="-1.00952">
        <ele>12.618945</ele>
        <time>2022-01-18T14:35:31.689Z</time>
      </trkpt>
      <trkpt lat="44.70999" lon="-1.00908">
        <ele>12.561615</ele>
        <time>2022-01-18T14:35:50.564Z</time>
      </trkpt>
      <trkpt lat="44.71023" lon="-1.00867">
        <ele>12.670192</ele>
        <time>2022-01-18T14:36:00.465Z</time>
      </trkpt>
      <trkpt lat="44.7103" lon="-1.00852">
        <ele>12.70801</ele>
        <time>2022-01-18T14:36:04.010Z</time>
      </trkpt>
      <trkpt lat="44.71046" lon="-1.0087">
        <ele>12.766278</ele>
        <time>2022-01-18T14:36:09.310Z</time>
      </trkpt>
      <trkpt lat="44.71138" lon="-1.01001">
        <ele>13.146027</ele>
        <time>2022-01-18T14:36:44.579Z</time>
      </trkpt>
      <trkpt lat="44.71172" lon="-1.01058">
        <ele>13.293814</ele>
        <time>2022-01-18T14:36:58.451Z</time>
      </trkpt>
      <trkpt lat="44.71386" lon="-1.01338">
        <ele>14.393614</ele>
        <time>2022-01-18T14:38:15.724Z</time>
      </trkpt>
      <trkpt lat="44.71481" lon="-1.01469">
        <ele>15.813031</ele>
        <time>2022-01-18T14:38:54.600Z</time>
      </trkpt>
      <trkpt lat="44.7168" lon="-1.01733">
        <ele>21.30777</ele>
        <time>2022-01-18T14:40:29.004Z</time>
      </trkpt>
      <trkpt lat="44.71673" lon="-1.01743">
        <ele>21.492783</ele>
        <time>2022-01-18T14:40:32.213Z</time>
      </trkpt>
      <trkpt lat="44.71678" lon="-1.01769">
        <ele>21.85339</ele>
        <time>2022-01-18T14:40:38.802Z</time>
      </trkpt>
      <trkpt lat="44.71679" lon="-1.0184">
        <ele>22.792686</ele>
        <time>2022-01-18T14:40:55.038Z</time>
      </trkpt>
      <trkpt lat="44.71643" lon="-1.02019">
        <ele>24.040615</ele>
        <time>2022-01-18T14:41:34.621Z</time>
      </trkpt>
      <trkpt lat="44.71622" lon="-1.02185">
        <ele>24.316968</ele>
        <time>2022-01-18T14:42:05.765Z</time>
      </trkpt>
      <trkpt lat="44.71577" lon="-1.02341">
        <ele>23.667473</ele>
        <time>2022-01-18T14:42:34.101Z</time>
      </trkpt>
      <trkpt lat="44.71574" lon="-1.02481">
        <ele>23.183656</ele>
        <time>2022-01-18T14:42:57.799Z</time>
      </trkpt>
      <trkpt lat="44.7173" lon="-1.02397">
        <ele>22.767221</ele>
        <time>2022-01-18T14:43:22.742Z</time>
      </trkpt>
      <trkpt lat="44.71801" lon="-1.02442">
        <ele>22.802947</ele>
        <time>2022-01-18T14:43:43.097Z</time>
      </trkpt>
      <trkpt lat="44.71857" lon="-1.02536">
        <ele>22.843253</ele>
        <time>2022-01-18T14:44:05.570Z</time>
      </trkpt>
      <trkpt lat="44.71878" lon="-1.02545">
        <ele>22.853308</ele>
        <time>2022-01-18T14:44:11.106Z</time>
      </trkpt>
      <trkpt lat="44.71909" lon="-1.02533">
        <ele>22.868114</ele>
        <time>2022-01-18T14:44:19.269Z</time>
      </trkpt>
      <trkpt lat="44.71933" lon="-1.02511">
        <ele>22.881369</ele>
        <time>2022-01-18T14:44:26.610Z</time>
      </trkpt>
      <trkpt lat="44.72112" lon="-1.02613">
        <ele>22.823728</ele>
        <time>2022-01-18T14:45:15.508Z</time>
      </trkpt>
      <trkpt lat="44.7227" lon="-1.02702">
        <ele>22.578067</ele>
        <time>2022-01-18T14:45:57.975Z</time>
      </trkpt>
      <trkpt lat="44.7243" lon="-1.02715">
        <ele>22.948917</ele>
        <time>2022-01-18T14:46:38.934Z</time>
      </trkpt>
      <trkpt lat="44.72706" lon="-1.02743">
        <ele>24.76233</ele>
        <time>2022-01-18T14:48:01.189Z</time>
      </trkpt>
      <trkpt lat="44.7333" lon="-1.02809">
        <ele>21.883231</ele>
        <time>2022-01-18T14:50:32.220Z</time>
      </trkpt>
      <trkpt lat="44.73386" lon="-1.02815">
        <ele>21.642418</ele>
        <time>2022-01-18T14:50:45.923Z</time>
      </trkpt>
      <trkpt lat="44.73978" lon="-1.0288">
        <ele>22.406514</ele>
        <time>2022-01-18T14:53:21.713Z</time>
      </trkpt>
      <trkpt lat="44.74201" lon="-1.04136">
        <ele>20.21376</ele>
        <time>2022-01-18T14:57:08.691Z</time>
      </trkpt>
      <trkpt lat="44.74441" lon="-1.04121">
        <ele>21.55557</ele>
        <time>2022-01-18T14:58:17.797Z</time>
      </trkpt>
      <trkpt lat="44.74475" lon="-1.04125">
        <ele>21.800902</ele>
        <time>2022-01-18T14:58:27.237Z</time>
      </trkpt>
      <trkpt lat="44.74519" lon="-1.04113">
        <ele>21.881542</ele>
        <time>2022-01-18T14:58:39.425Z</time>
      </trkpt>
      <trkpt lat="44.74987" lon="-1.04563">
        <ele>22.206298</ele>
        <time>2022-01-18T15:01:03.414Z</time>
      </trkpt>
      <trkpt lat="44.75689" lon="-1.04736">
        <ele>23.462215</ele>
        <time>2022-01-18T15:04:09.856Z</time>
      </trkpt>
      <trkpt lat="44.75675" lon="-1.0491">
        <ele>23.806068</ele>
        <time>2022-01-18T15:04:43.474Z</time>
      </trkpt>
      <trkpt lat="44.75654" lon="-1.05191">
        <ele>23.672117</ele>
        <time>2022-01-18T15:05:34.555Z</time>
      </trkpt>
      <trkpt lat="44.75656" lon="-1.05209">
        <ele>23.588191</ele>
        <time>2022-01-18T15:05:37.700Z</time>
      </trkpt>
      <trkpt lat="44.75678" lon="-1.05246">
        <ele>23.365052</ele>
        <time>2022-01-18T15:05:45.938Z</time>
      </trkpt>
      <trkpt lat="44.7567" lon="-1.0527">
        <ele>23.243215</ele>
        <time>2022-01-18T15:05:50.423Z</time>
      </trkpt>
      <trkpt lat="44.75663" lon="-1.05303">
        <ele>23.085856</ele>
        <time>2022-01-18T15:05:56.185Z</time>
      </trkpt>
      <trkpt lat="44.75755" lon="-1.05291">
        <ele>22.478215</ele>
        <time>2022-01-18T15:06:17.664Z</time>
      </trkpt>
      <trkpt lat="44.75868" lon="-1.0529">
        <ele>21.678442</ele>
        <time>2022-01-18T15:06:44.400Z</time>
      </trkpt>
      <trkpt lat="44.75945" lon="-1.0528">
        <ele>21.451006</ele>
        <time>2022-01-18T15:07:03.540Z</time>
      </trkpt>
      <trkpt lat="44.76324" lon="-1.05183">
        <ele>22.52884</ele>
        <time>2022-01-18T15:08:46.941Z</time>
      </trkpt>
      <trkpt lat="44.76553" lon="-1.05635">
        <ele>23.657276</ele>
        <time>2022-01-18T15:10:30.897Z</time>
      </trkpt>
      <trkpt lat="44.76801" lon="-1.06103">
        <ele>25.73047</ele>
        <time>2022-01-18T15:12:25.971Z</time>
      </trkpt>
      <trkpt lat="44.76567" lon="-1.0637">
        <ele>25.38839</ele>
        <time>2022-01-18T15:13:12.905Z</time>
      </trkpt>
      <trkpt lat="44.76578" lon="-1.06373">
        <ele>25.304642</ele>
        <time>2022-01-18T15:13:15.614Z</time>
      </trkpt>
      <trkpt lat="44.76444" lon="-1.06527">
        <ele>23.531227</ele>
        <time>2022-01-18T15:13:37.807Z</time>
      </trkpt>
      <trkpt lat="44.76455" lon="-1.06545">
        <ele>23.321295</ele>
        <time>2022-01-18T15:13:41.572Z</time>
      </trkpt>
      <trkpt lat="44.76679" lon="-1.06972">
        <ele>20.289424</ele>
        <time>2022-01-18T15:15:11.087Z</time>
      </trkpt>
      <trkpt lat="44.76901" lon="-1.07393">
        <ele>20.46211</ele>
        <time>2022-01-18T15:16:45.436Z</time>
      </trkpt>
      <trkpt lat="44.77069" lon="-1.07708">
        <ele>23.563439</ele>
        <time>2022-01-18T15:18:16.970Z</time>
      </trkpt>
      <trkpt lat="44.77089" lon="-1.08251">
        <ele>22.429907</ele>
        <time>2022-01-18T15:19:49.677Z</time>
      </trkpt>
      <trkpt lat="44.77079" lon="-1.08294">
        <ele>22.233978</ele>
        <time>2022-01-18T15:19:57.266Z</time>
      </trkpt>
      <trkpt lat="44.77085" lon="-1.0832">
        <ele>22.113256</ele>
        <time>2022-01-18T15:20:01.901Z</time>
      </trkpt>
      <trkpt lat="44.76994" lon="-1.08715">
        <ele>20.953899</ele>
        <time>2022-01-18T15:21:14.159Z</time>
      </trkpt>
      <trkpt lat="44.76947" lon="-1.08915">
        <ele>20.726794</ele>
        <time>2022-01-18T15:21:51.905Z</time>
      </trkpt>
      <trkpt lat="44.76881" lon="-1.09093">
        <ele>20.654665</ele>
        <time>2022-01-18T15:22:28.832Z</time>
      </trkpt>
      <trkpt lat="44.76783" lon="-1.09353">
        <ele>19.537457</ele>
        <time>2022-01-18T15:23:19.547Z</time>
      </trkpt>
      <trkpt lat="44.76561" lon="-1.09953">
        <ele>14.71736</ele>
        <time>2022-01-18T15:25:11.013Z</time>
      </trkpt>
      <trkpt lat="44.76495" lon="-1.10127">
        <ele>14.340692</ele>
        <time>2022-01-18T15:25:46.440Z</time>
      </trkpt>
      <trkpt lat="44.76333" lon="-1.10555">
        <ele>13.545546</ele>
        <time>2022-01-18T15:27:13.226Z</time>
      </trkpt>
      <trkpt lat="44.76304" lon="-1.10624">
        <ele>13.24792</ele>
        <time>2022-01-18T15:27:26.500Z</time>
      </trkpt>
      <trkpt lat="44.76314" lon="-1.10641">
        <ele>13.166245</ele>
        <time>2022-01-18T15:27:30.127Z</time>
      </trkpt>
      <trkpt lat="44.7636" lon="-1.10715">
        <ele>12.492036</ele>
        <time>2022-01-18T15:27:46.341Z</time>
      </trkpt>
      <trkpt lat="44.76374" lon="-1.10735">
        <ele>12.296242</ele>
        <time>2022-01-18T15:27:50.886Z</time>
      </trkpt>
      <trkpt lat="44.76377" lon="-1.10739">
        <ele>12.257186</ele>
        <time>2022-01-18T15:27:51.826Z</time>
      </trkpt>
      <trkpt lat="44.76388" lon="-1.1075">
        <ele>12.11793</ele>
        <time>2022-01-18T15:27:55.077Z</time>
      </trkpt>
      <trkpt lat="44.76428" lon="-1.10787">
        <ele>11.651949</ele>
        <time>2022-01-18T15:28:06.040Z</time>
      </trkpt>
      <trkpt lat="44.76846" lon="-1.11115">
        <ele>9.754269</ele>
        <time>2022-01-18T15:30:04.014Z</time>
      </trkpt>
      <trkpt lat="44.76855" lon="-1.11128">
        <ele>9.716839</ele>
        <time>2022-01-18T15:30:07.172Z</time>
      </trkpt>
      <trkpt lat="44.76857" lon="-1.11126">
        <ele>9.711235</ele>
        <time>2022-01-18T15:30:07.573Z</time>
      </trkpt>
      <trkpt lat="44.76864" lon="-1.11126">
        <ele>9.690242</ele>
        <time>2022-01-18T15:30:08.948Z</time>
      </trkpt>
      <trkpt lat="44.76865" lon="-1.11128">
        <ele>9.684495</ele>
        <time>2022-01-18T15:30:09.355Z</time>
      </trkpt>
      <trkpt lat="44.76866" lon="-1.11131">
        <ele>9.678235</ele>
        <time>2022-01-18T15:30:09.788Z</time>
      </trkpt>
      <trkpt lat="44.76866" lon="-1.11134">
        <ele>9.671876</ele>
        <time>2022-01-18T15:30:10.201Z</time>
      </trkpt>
      <trkpt lat="44.76874" lon="-1.1114">
        <ele>9.646315</ele>
        <time>2022-01-18T15:30:11.880Z</time>
      </trkpt>
      <trkpt lat="44.76955" lon="-1.11205">
        <ele>9.448395</ele>
        <time>2022-01-18T15:30:30.186Z</time>
      </trkpt>
      <trkpt lat="44.76959" lon="-1.11208">
        <ele>9.443859</ele>
        <time>2022-01-18T15:30:31.026Z</time>
      </trkpt>
      <trkpt lat="44.76972" lon="-1.11218">
        <ele>9.427176</ele>
        <time>2022-01-18T15:30:34.078Z</time>
      </trkpt>
      <trkpt lat="44.76974" lon="-1.11217">
        <ele>9.425473</ele>
        <time>2022-01-18T15:30:34.411Z</time>
      </trkpt>
      <trkpt lat="44.76976" lon="-1.11217">
        <ele>9.422556</ele>
        <time>2022-01-18T15:30:34.980Z</time>
      </trkpt>
      <trkpt lat="44.76977" lon="-1.11217">
        <ele>9.422124</ele>
        <time>2022-01-18T15:30:35.080Z</time>
      </trkpt>
      <trkpt lat="44.76979" lon="-1.11217">
        <ele>9.419767</ele>
        <time>2022-01-18T15:30:35.531Z</time>
      </trkpt>
      <trkpt lat="44.76981" lon="-1.11219">
        <ele>9.416878</ele>
        <time>2022-01-18T15:30:36.113Z</time>
      </trkpt>
      <trkpt lat="44.76983" lon="-1.11222">
        <ele>9.413956</ele>
        <time>2022-01-18T15:30:36.646Z</time>
      </trkpt>
      <trkpt lat="44.76984" lon="-1.11225">
        <ele>9.41111</ele>
        <time>2022-01-18T15:30:37.160Z</time>
      </trkpt>
      <trkpt lat="44.76985" lon="-1.11229">
        <ele>9.408235</ele>
        <time>2022-01-18T15:30:37.715Z</time>
      </trkpt>
      <trkpt lat="44.77031" lon="-1.11266">
        <ele>9.351281</ele>
        <time>2022-01-18T15:30:48.405Z</time>
      </trkpt>
      <trkpt lat="44.77036" lon="-1.11269">
        <ele>9.346134</ele>
        <time>2022-01-18T15:30:49.452Z</time>
      </trkpt>
      <trkpt lat="44.77048" lon="-1.11278">
        <ele>9.331523</ele>
        <time>2022-01-18T15:30:52.222Z</time>
      </trkpt>
      <trkpt lat="44.7705" lon="-1.1128">
        <ele>9.329208</ele>
        <time>2022-01-18T15:30:52.648Z</time>
      </trkpt>
      <trkpt lat="44.77076" lon="-1.11299">
        <ele>9.304179</ele>
        <time>2022-01-18T15:30:58.713Z</time>
      </trkpt>
      <trkpt lat="44.77077" lon="-1.11302">
        <ele>9.30729</ele>
        <time>2022-01-18T15:30:59.234Z</time>
      </trkpt>
      <trkpt lat="44.77096" lon="-1.11316">
        <ele>9.331051</ele>
        <time>2022-01-18T15:31:03.547Z</time>
      </trkpt>
      <trkpt lat="44.77118" lon="-1.11333">
        <ele>9.358768</ele>
        <time>2022-01-18T15:31:08.553Z</time>
      </trkpt>
      <trkpt lat="44.77122" lon="-1.11336">
        <ele>9.364692</ele>
        <time>2022-01-18T15:31:09.642Z</time>
      </trkpt>
      <trkpt lat="44.77143" lon="-1.11354">
        <ele>9.392187</ele>
        <time>2022-01-18T15:31:14.791Z</time>
      </trkpt>
      <trkpt lat="44.77155" lon="-1.11376">
        <ele>9.413692</ele>
        <time>2022-01-18T15:31:18.933Z</time>
      </trkpt>
      <trkpt lat="44.77163" lon="-1.11415">
        <ele>9.446064</ele>
        <time>2022-01-18T15:31:24.863Z</time>
      </trkpt>
      <trkpt lat="44.77166" lon="-1.11423">
        <ele>9.452863</ele>
        <time>2022-01-18T15:31:26.268Z</time>
      </trkpt>
      <trkpt lat="44.77169" lon="-1.11427">
        <ele>9.45763</ele>
        <time>2022-01-18T15:31:26.933Z</time>
      </trkpt>
      <trkpt lat="44.7717" lon="-1.11444">
        <ele>9.471166</ele>
        <time>2022-01-18T15:31:28.793Z</time>
      </trkpt>
      <trkpt lat="44.77168" lon="-1.11449">
        <ele>9.475836</ele>
        <time>2022-01-18T15:31:29.459Z</time>
      </trkpt>
      <trkpt lat="44.77165" lon="-1.11452">
        <ele>9.479289</ele>
        <time>2022-01-18T15:31:29.940Z</time>
      </trkpt>
      <trkpt lat="44.77162" lon="-1.11454">
        <ele>9.4828</ele>
        <time>2022-01-18T15:31:30.431Z</time>
      </trkpt>
      <trkpt lat="44.77157" lon="-1.1146">
        <ele>9.490807</ele>
        <time>2022-01-18T15:31:31.651Z</time>
      </trkpt>
      <trkpt lat="44.77152" lon="-1.11466">
        <ele>9.497927</ele>
        <time>2022-01-18T15:31:32.697Z</time>
      </trkpt>
      <trkpt lat="44.77147" lon="-1.11476">
        <ele>9.496213</ele>
        <time>2022-01-18T15:31:34.095Z</time>
      </trkpt>
      <trkpt lat="44.77141" lon="-1.11503">
        <ele>9.473483</ele>
        <time>2022-01-18T15:31:37.228Z</time>
      </trkpt>
      <trkpt lat="44.77155" lon="-1.11517">
        <ele>9.453294</ele>
        <time>2022-01-18T15:31:41.641Z</time>
      </trkpt>
      <trkpt lat="44.77176" lon="-1.11573">
        <ele>9.400874</ele>
        <time>2022-01-18T15:31:52.945Z</time>
      </trkpt>
      <trkpt lat="44.7726" lon="-1.11797">
        <ele>9.3034</ele>
        <time>2022-01-18T15:32:37.647Z</time>
      </trkpt>
      <trkpt lat="44.77372" lon="-1.12129">
        <ele>9.638618</ele>
        <time>2022-01-18T15:33:46.343Z</time>
      </trkpt>
      <trkpt lat="44.7741" lon="-1.1224">
        <ele>9.701029</ele>
        <time>2022-01-18T15:34:08.958Z</time>
      </trkpt>
      <trkpt lat="44.77412" lon="-1.12246">
        <ele>9.703345</ele>
        <time>2022-01-18T15:34:09.979Z</time>
      </trkpt>
      <trkpt lat="44.77489" lon="-1.12472">
        <ele>9.778209</ele>
        <time>2022-01-18T15:34:55.668Z</time>
      </trkpt>
      <trkpt lat="44.77498" lon="-1.1251">
        <ele>9.786279</ele>
        <time>2022-01-18T15:35:02.970Z</time>
      </trkpt>
      <trkpt lat="44.77491" lon="-1.12588">
        <ele>9.802369</ele>
        <time>2022-01-18T15:35:17.187Z</time>
      </trkpt>
      <trkpt lat="44.7749" lon="-1.1261">
        <ele>9.806944</ele>
        <time>2022-01-18T15:35:21.325Z</time>
      </trkpt>
      <trkpt lat="44.77496" lon="-1.12637">
        <ele>9.767537</ele>
        <time>2022-01-18T15:35:26.380Z</time>
      </trkpt>
      <trkpt lat="44.77503" lon="-1.1266">
        <ele>9.73122</ele>
        <time>2022-01-18T15:35:30.844Z</time>
      </trkpt>
      <trkpt lat="44.77507" lon="-1.12646">
        <ele>9.70999</ele>
        <time>2022-01-18T15:35:32.341Z</time>
      </trkpt>
      <trkpt lat="44.7751" lon="-1.12628">
        <ele>9.682966</ele>
        <time>2022-01-18T15:35:34.319Z</time>
      </trkpt>
      <trkpt lat="44.77509" lon="-1.12609">
        <ele>9.6537</ele>
        <time>2022-01-18T15:35:36.450Z</time>
      </trkpt>
      <trkpt lat="44.77516" lon="-1.12608">
        <ele>9.639267</ele>
        <time>2022-01-18T15:35:38.149Z</time>
      </trkpt>
      <trkpt lat="44.77524" lon="-1.12605">
        <ele>9.62171</ele>
        <time>2022-01-18T15:35:40.240Z</time>
      </trkpt>
      <trkpt lat="44.77534" lon="-1.12611">
        <ele>9.599603</ele>
        <time>2022-01-18T15:35:42.910Z</time>
      </trkpt>
      <trkpt lat="44.77564" lon="-1.12693">
        <ele>9.463528</ele>
        <time>2022-01-18T15:35:59.028Z</time>
      </trkpt>
      <trkpt lat="44.77565" lon="-1.12697">
        <ele>9.457164</ele>
        <time>2022-01-18T15:35:59.787Z</time>
      </trkpt>
      <trkpt lat="44.77618" lon="-1.12857">
        <ele>8.973506</ele>
        <time>2022-01-18T15:36:30.600Z</time>
      </trkpt>
      <trkpt lat="44.77706" lon="-1.13115">
        <ele>8.252916</ele>
        <time>2022-01-18T15:37:20.265Z</time>
      </trkpt>
      <trkpt lat="44.77837" lon="-1.13504">
        <ele>8.343598</ele>
        <time>2022-01-18T15:38:37.651Z</time>
      </trkpt>
      <trkpt lat="44.77838" lon="-1.13507">
        <ele>8.351996</ele>
        <time>2022-01-18T15:38:38.814Z</time>
      </trkpt>
      <trkpt lat="44.77871" lon="-1.13612">
        <ele>8.657037</ele>
        <time>2022-01-18T15:39:01.209Z</time>
      </trkpt>
      <trkpt lat="44.77877" lon="-1.13676">
        <ele>8.858906</ele>
        <time>2022-01-18T15:39:14.182Z</time>
      </trkpt>
      <trkpt lat="44.77885" lon="-1.13747">
        <ele>9.09459</ele>
        <time>2022-01-18T15:39:28.416Z</time>
      </trkpt>
      <trkpt lat="44.77887" lon="-1.13818">
        <ele>9.326138</ele>
        <time>2022-01-18T15:39:41.940Z</time>
      </trkpt>
      <trkpt lat="44.7791" lon="-1.14041">
        <ele>9.683404</ele>
        <time>2022-01-18T15:40:24.245Z</time>
      </trkpt>
      <trkpt lat="44.77914" lon="-1.14264">
        <ele>9.375994</ele>
        <time>2022-01-18T15:41:04.021Z</time>
      </trkpt>
      <trkpt lat="44.77911" lon="-1.14278">
        <ele>9.332028</ele>
        <time>2022-01-18T15:41:06.559Z</time>
      </trkpt>
      <trkpt lat="44.77905" lon="-1.14309">
        <ele>9.234561</ele>
        <time>2022-01-18T15:41:12.251Z</time>
      </trkpt>
      <trkpt lat="44.77899" lon="-1.14342">
        <ele>9.133536</ele>
        <time>2022-01-18T15:41:17.975Z</time>
      </trkpt>
      <trkpt lat="44.77877" lon="-1.14335">
        <ele>9.0372</ele>
        <time>2022-01-18T15:41:21.096Z</time>
      </trkpt>
      <trkpt lat="44.77868" lon="-1.14338">
        <ele>8.992395</ele>
        <time>2022-01-18T15:41:22.468Z</time>
      </trkpt>
      <trkpt lat="44.77821" lon="-1.14314">
        <ele>8.566154</ele>
        <time>2022-01-18T15:41:29.941Z</time>
      </trkpt>
      <trkpt lat="44.77791" lon="-1.14297">
        <ele>8.284451</ele>
        <time>2022-01-18T15:41:34.836Z</time>
      </trkpt>
      <trkpt lat="44.77748" lon="-1.14274">
        <ele>7.891594</ele>
        <time>2022-01-18T15:41:41.882Z</time>
      </trkpt>
      <trkpt lat="44.77702" lon="-1.14249">
        <ele>7.467541</ele>
        <time>2022-01-18T15:41:49.708Z</time>
      </trkpt>
      <trkpt lat="44.77671" lon="-1.14517">
        <ele>6.808958</ele>
        <time>2022-01-18T15:42:37.173Z</time>
      </trkpt>
      <trkpt lat="44.77627" lon="-1.14887">
        <ele>6.688462</ele>
        <time>2022-01-18T15:43:45.154Z</time>
      </trkpt>
      <trkpt lat="44.77638" lon="-1.1489">
        <ele>6.680283</ele>
        <time>2022-01-18T15:43:46.773Z</time>
      </trkpt>
      <trkpt lat="44.77671" lon="-1.14947">
        <ele>6.64106</ele>
        <time>2022-01-18T15:43:54.593Z</time>
      </trkpt>
      <trkpt lat="44.77723" lon="-1.15042">
        <ele>6.434861</ele>
        <time>2022-01-18T15:44:07.250Z</time>
      </trkpt>
      <trkpt lat="44.77733" lon="-1.15061">
        <ele>6.38513</ele>
        <time>2022-01-18T15:44:09.833Z</time>
      </trkpt>
      <trkpt lat="44.7777" lon="-1.15083">
        <ele>6.270096</ele>
        <time>2022-01-18T15:44:15.710Z</time>
      </trkpt>
      <trkpt lat="44.77802" lon="-1.15083">
        <ele>6.178521</ele>
        <time>2022-01-18T15:44:20.368Z</time>
      </trkpt>
      <trkpt lat="44.77786" lon="-1.15149">
        <ele>5.991241</ele>
        <time>2022-01-18T15:44:28.419Z</time>
      </trkpt>
      <trkpt lat="44.77772" lon="-1.15212">
        <ele>5.77358</ele>
        <time>2022-01-18T15:44:36.180Z</time>
      </trkpt>
      <trkpt lat="44.77767" lon="-1.15266">
        <ele>5.596195</ele>
        <time>2022-01-18T15:44:42.431Z</time>
      </trkpt>
      <trkpt lat="44.77759" lon="-1.15451">
        <ele>4.836946</ele>
        <time>2022-01-18T15:45:03.268Z</time>
      </trkpt>
      <trkpt lat="44.77763" lon="-1.15555">
        <ele>4.314843</ele>
        <time>2022-01-18T15:45:14.944Z</time>
      </trkpt>
      <trkpt lat="44.77733" lon="-1.1576">
        <ele>3.253357</ele>
        <time>2022-01-18T15:45:37.743Z</time>
      </trkpt>
      <trkpt lat="44.77732" lon="-1.15793">
        <ele>3.083455</ele>
        <time>2022-01-18T15:45:41.359Z</time>
      </trkpt>
      <trkpt lat="44.77728" lon="-1.15857">
        <ele>2.75273</ele>
        <time>2022-01-18T15:45:52.599Z</time>
      </trkpt>
      <trkpt lat="44.77728" lon="-1.15897">
        <ele>2.752287</ele>
        <time>2022-01-18T15:45:59.404Z</time>
      </trkpt>
      <trkpt lat="44.77741" lon="-1.15902">
        <ele>2.768766</ele>
        <time>2022-01-18T15:46:02.918Z</time>
      </trkpt>
      <trkpt lat="44.77773" lon="-1.15913">
        <ele>2.809588</ele>
        <time>2022-01-18T15:46:11.149Z</time>
      </trkpt>
      <trkpt lat="44.78044" lon="-1.15934">
        <ele>3.676161</ele>
        <time>2022-01-18T15:47:24.652Z</time>
      </trkpt>
      <trkpt lat="44.78053" lon="-1.15934">
        <ele>3.717498</ele>
        <time>2022-01-18T15:47:27.196Z</time>
      </trkpt>
      <trkpt lat="44.78052" lon="-1.15939">
        <ele>3.732866</ele>
        <time>2022-01-18T15:47:28.141Z</time>
      </trkpt>
      <trkpt lat="44.78051" lon="-1.1595">
        <ele>3.770626</ele>
        <time>2022-01-18T15:47:30.413Z</time>
      </trkpt>
      <trkpt lat="44.7805" lon="-1.15962">
        <ele>3.811564</ele>
        <time>2022-01-18T15:47:32.742Z</time>
      </trkpt>
      <trkpt lat="44.78048" lon="-1.15982">
        <ele>3.88396</ele>
        <time>2022-01-18T15:47:36.809Z</time>
      </trkpt>
      <trkpt lat="44.78059" lon="-1.15978">
        <ele>3.941931</ele>
        <time>2022-01-18T15:47:40.076Z</time>
      </trkpt>
      <trkpt lat="44.78038" lon="-1.16224">
        <ele>4.808265</ele>
        <time>2022-01-18T15:48:27.874Z</time>
      </trkpt>
      <trkpt lat="44.78044" lon="-1.16222">
        <ele>4.837209</ele>
        <time>2022-01-18T15:48:29.461Z</time>
      </trkpt>
      <trkpt lat="44.78059" lon="-1.16227">
        <ele>4.910672</ele>
        <time>2022-01-18T15:48:33.823Z</time>
      </trkpt>
      <trkpt lat="44.78071" lon="-1.1623">
        <ele>4.972338</ele>
        <time>2022-01-18T15:48:37.152Z</time>
      </trkpt>
      <trkpt lat="44.78079" lon="-1.16234">
        <ele>5.009519</ele>
        <time>2022-01-18T15:48:39.207Z</time>
      </trkpt>
      <trkpt lat="44.78093" lon="-1.16238">
        <ele>5.0837</ele>
        <time>2022-01-18T15:48:43.614Z</time>
      </trkpt>
      <trkpt lat="44.78106" lon="-1.16229">
        <ele>5.150243</ele>
        <time>2022-01-18T15:48:47.215Z</time>
      </trkpt>
      <trkpt lat="44.78109" lon="-1.16227">
        <ele>5.166384</ele>
        <time>2022-01-18T15:48:48.096Z</time>
      </trkpt>
      <trkpt lat="44.78103" lon="-1.16223">
        <ele>5.1972</ele>
        <time>2022-01-18T15:48:49.835Z</time>
      </trkpt>
      <trkpt lat="44.78101" lon="-1.16226">
        <ele>5.210151</ele>
        <time>2022-01-18T15:48:50.324Z</time>
      </trkpt>
      <trkpt lat="44.78084" lon="-1.16272">
        <ele>5.388178</ele>
        <time>2022-01-18T15:48:57.000Z</time>
      </trkpt>
      <trkpt lat="44.78083" lon="-1.16276">
        <ele>5.401679</ele>
        <time>2022-01-18T15:48:57.548Z</time>
      </trkpt>
      <trkpt lat="44.78081" lon="-1.16284">
        <ele>5.432096</ele>
        <time>2022-01-18T15:48:58.806Z</time>
      </trkpt>
      <trkpt lat="44.78079" lon="-1.163">
        <ele>5.487676</ele>
        <time>2022-01-18T15:49:00.718Z</time>
      </trkpt>
      <trkpt lat="44.78076" lon="-1.16316">
        <ele>5.538684</ele>
        <time>2022-01-18T15:49:02.773Z</time>
      </trkpt>
      <trkpt lat="44.78071" lon="-1.16327">
        <ele>5.570699</ele>
        <time>2022-01-18T15:49:04.684Z</time>
      </trkpt>
      <trkpt lat="44.78023" lon="-1.16426">
        <ele>5.855132</ele>
        <time>2022-01-18T15:49:19.897Z</time>
      </trkpt>
      <trkpt lat="44.77942" lon="-1.16558">
        <ele>6.130106</ele>
        <time>2022-01-18T15:49:40.824Z</time>
      </trkpt>
      <trkpt lat="44.77892" lon="-1.16622">
        <ele>6.130106</ele>
        <time>2022-01-18T15:49:52.120Z</time>
      </trkpt>
      <trkpt lat="44.77845" lon="-1.16708">
        <ele>6.130106</ele>
        <time>2022-01-18T15:50:05.981Z</time>
      </trkpt>
      <trkpt lat="44.77843" lon="-1.16711">
        <ele>6.130106</ele>
        <time>2022-01-18T15:50:06.380Z</time>
      </trkpt>
      <trkpt lat="44.77837" lon="-1.16719">
        <ele>6.130106</ele>
        <time>2022-01-18T15:50:08.011Z</time>
      </trkpt>
      <trkpt lat="44.77833" lon="-1.16715">
        <ele>6.130106</ele>
        <time>2022-01-18T15:50:09.077Z</time>
      </trkpt>
      <trkpt lat="44.77822" lon="-1.16703">
        <ele>6.130106</ele>
        <time>2022-01-18T15:50:11.307Z</time>
      </trkpt>
      <trkpt lat="44.77811" lon="-1.16696">
        <ele>6.130106</ele>
        <time>2022-01-18T15:50:13.100Z</time>
      </trkpt>
      <trkpt lat="44.77806" lon="-1.16692">
        <ele>6.130106</ele>
        <time>2022-01-18T15:50:14.543Z</time>
      </trkpt>
      <trkpt lat="44.77798" lon="-1.16677">
        <ele>6.130106</ele>
        <time>2022-01-18T15:50:16.693Z</time>
      </trkpt>
      <trkpt lat="44.77798" lon="-1.16667">
        <ele>6.130106</ele>
        <time>2022-01-18T15:50:18.002Z</time>
      </trkpt>
    </trkseg>
  </trk>
</gpx>